sensor_id;sensor_type;location;lat;lon;timestamp;pressure;altitude;pressure_sealevel;temperature;humidity
74218;BME280;62579;47.288;18.646;2022-09-09T00:13:26;99636.94;;;17.60;86.23
74218;BME280;62579;47.288;18.646;2022-09-09T00:15:57;99627.59;;;17.63;85.94
74218;BME280;62579;47.288;18.646;2022-09-09T00:18:26;99630.34;;;17.63;85.82
74218;BME280;62579;47.288;18.646;2022-09-09T00:23:22;99623.19;;;17.67;84.86
74218;BME280;62579;47.288;18.646;2022-09-09T00:25:54;99627.06;;;17.72;85.23
74218;BME280;62579;47.288;18.646;2022-09-09T00:28:26;99624.66;;;17.68;85.17
74218;BME280;62579;47.288;18.646;2022-09-09T00:30:52;99633.09;;;17.63;85.58
74218;BME280;62579;47.288;18.646;2022-09-09T00:33:27;99630.19;;;17.61;85.94
74218;BME280;62579;47.288;18.646;2022-09-09T00:35:56;99622.28;;;17.65;85.54
74218;BME280;62579;47.288;18.646;2022-09-09T00:43:36;99624.25;;;17.34;86.99
74218;BME280;62579;47.288;18.646;2022-09-09T00:51:17;99644.25;;;17.50;86.09
74218;BME280;62579;47.288;18.646;2022-09-09T00:56:20;99644.25;;;17.42;86.69
74218;BME280;62579;47.288;18.646;2022-09-09T00:58:54;99643.34;;;17.39;86.76
74218;BME280;62579;47.288;18.646;2022-09-09T01:01:23;99648.81;;;17.32;86.93
74218;BME280;62579;47.288;18.646;2022-09-09T01:03:55;99643.87;;;17.30;86.79
74218;BME280;62579;47.288;18.646;2022-09-09T01:09:00;99654.69;;;17.36;86.07
74218;BME280;62579;47.288;18.646;2022-09-09T01:11:32;99659.63;;;17.30;86.47
74218;BME280;62579;47.288;18.646;2022-09-09T01:16:56;99671.03;;;17.34;86.32
74218;BME280;62579;47.288;18.646;2022-09-09T01:19:27;99653.59;;;17.31;86.47
74218;BME280;62579;47.288;18.646;2022-09-09T01:22:03;99669.94;;;17.45;86.01
74218;BME280;62579;47.288;18.646;2022-09-09T01:25:01;99653.59;;;17.47;85.87
74218;BME280;62579;47.288;18.646;2022-09-09T01:27:21;99661.12;;;17.46;85.64
74218;BME280;62579;47.288;18.646;2022-09-09T01:29:48;99666.63;;;17.46;85.53
74218;BME280;62579;47.288;18.646;2022-09-09T01:37:48;99676.19;;;17.45;85.52
74218;BME280;62579;47.288;18.646;2022-09-09T01:40:13;99676.88;;;17.46;85.48
74218;BME280;62579;47.288;18.646;2022-09-09T01:42:47;99678.72;;;17.43;85.44
74218;BME280;62579;47.288;18.646;2022-09-09T01:47:48;99673.94;;;17.28;85.79
74218;BME280;62579;47.288;18.646;2022-09-09T01:50:15;99683.47;;;17.27;86.19
74218;BME280;62579;47.288;18.646;2022-09-09T01:52:41;99675.38;;;17.22;86.44
74218;BME280;62579;47.288;18.646;2022-09-09T01:55:07;99670.44;;;17.20;86.62
74218;BME280;62579;47.288;18.646;2022-09-09T01:57:33;99666.56;;;17.16;86.75
74218;BME280;62579;47.288;18.646;2022-09-09T02:00:07;99674.63;;;17.14;86.77
74218;BME280;62579;47.288;18.646;2022-09-09T02:28:11;99675.94;;;17.28;85.12
74218;BME280;62579;47.288;18.646;2022-09-09T02:41:41;99690.66;;;17.46;85.02
74218;BME280;62579;47.288;18.646;2022-09-09T02:46:36;99694.03;;;17.16;85.27
74218;BME280;62579;47.288;18.646;2022-09-09T02:52:04;99705.28;;;17.33;84.54
74218;BME280;62579;47.288;18.646;2022-09-09T02:54:34;99707.88;;;17.31;84.62
74218;BME280;62579;47.288;18.646;2022-09-09T02:59:29;99711.72;;;17.35;84.29
74218;BME280;62579;47.288;18.646;2022-09-09T03:01:55;99709.88;;;17.30;84.40
74218;BME280;62579;47.288;18.646;2022-09-09T03:04:20;99710.38;;;17.14;85.14
74218;BME280;62579;47.288;18.646;2022-09-09T03:06:46;99712.63;;;17.30;84.31
74218;BME280;62579;47.288;18.646;2022-09-09T03:09:11;99715.88;;;17.21;85.69
74218;BME280;62579;47.288;18.646;2022-09-09T03:11:39;99709.44;;;17.11;86.07
74218;BME280;62579;47.288;18.646;2022-09-09T03:31:23;99734.44;;;17.21;85.35
74218;BME280;62579;47.288;18.646;2022-09-09T03:33:49;99731.12;;;17.30;84.93
74218;BME280;62579;47.288;18.646;2022-09-09T03:36:14;99739.38;;;17.30;84.21
74218;BME280;62579;47.288;18.646;2022-09-09T03:41:33;99725.81;;;17.32;83.91
74218;BME280;62579;47.288;18.646;2022-09-09T04:29:07;99720.19;;;16.94;84.68
74218;BME280;62579;47.288;18.646;2022-09-09T04:31:32;99710.28;;;16.91;84.85
74218;BME280;62579;47.288;18.646;2022-09-09T04:33:58;99722.09;;;16.71;85.83
74218;BME280;62579;47.288;18.646;2022-09-09T04:36:27;99720.13;;;16.87;85.33
74218;BME280;62579;47.288;18.646;2022-09-09T04:38:52;99713.88;;;16.78;85.58
74218;BME280;62579;47.288;18.646;2022-09-09T04:41:17;99712.41;;;16.77;85.69
74218;BME280;62579;47.288;18.646;2022-09-09T04:43:43;99708.00;;;16.74;85.78
74218;BME280;62579;47.288;18.646;2022-09-09T04:46:15;99704.84;;;16.70;86.01
74218;BME280;62579;47.288;18.646;2022-09-09T04:48:43;99707.91;;;16.59;86.53
74218;BME280;62579;47.288;18.646;2022-09-09T04:51:10;99702.97;;;16.58;86.71
74218;BME280;62579;47.288;18.646;2022-09-09T04:53:36;99704.44;;;16.59;86.60
74218;BME280;62579;47.288;18.646;2022-09-09T04:58:48;99715.88;;;16.50;86.62
74218;BME280;62579;47.288;18.646;2022-09-09T05:01:17;99719.91;;;16.49;86.83
74218;BME280;62579;47.288;18.646;2022-09-09T05:03:43;99724.75;;;16.56;86.21
74218;BME280;62579;47.288;18.646;2022-09-09T05:06:11;99717.44;;;16.58;86.12
74218;BME280;62579;47.288;18.646;2022-09-09T05:08:36;99716.00;;;16.65;85.70
74218;BME280;62579;47.288;18.646;2022-09-09T05:11:02;99720.34;;;16.53;86.76
74218;BME280;62579;47.288;18.646;2022-09-09T05:13:28;99717.38;;;16.51;86.87
74218;BME280;62579;47.288;18.646;2022-09-09T05:15:54;99711.13;;;16.50;86.85
74218;BME280;62579;47.288;18.646;2022-09-09T05:18:19;99717.97;;;16.57;86.85
74218;BME280;62579;47.288;18.646;2022-09-09T05:20:44;99715.06;;;16.62;86.78
74218;BME280;62579;47.288;18.646;2022-09-09T05:23:09;99711.19;;;16.58;86.74
74218;BME280;62579;47.288;18.646;2022-09-09T05:25:38;99716.34;;;16.61;86.36
74218;BME280;62579;47.288;18.646;2022-09-09T05:28:03;99715.66;;;16.68;86.61
74218;BME280;62579;47.288;18.646;2022-09-09T05:30:29;99722.62;;;16.69;86.26
74218;BME280;62579;47.288;18.646;2022-09-09T05:32:57;99713.09;;;16.70;86.70
74218;BME280;62579;47.288;18.646;2022-09-09T05:35:22;99730.91;;;16.77;86.43
74218;BME280;62579;47.288;18.646;2022-09-09T05:37:48;99721.59;;;16.80;86.13
74218;BME280;62579;47.288;18.646;2022-09-09T05:40:13;99717.78;;;16.91;85.84
74218;BME280;62579;47.288;18.646;2022-09-09T05:42:40;99730.09;;;16.97;85.31
74218;BME280;62579;47.288;18.646;2022-09-09T05:45:06;99735.31;;;17.16;84.94
74218;BME280;62579;47.288;18.646;2022-09-09T05:47:32;99733.69;;;17.20;84.73
74218;BME280;62579;47.288;18.646;2022-09-09T05:49:57;99736.28;;;17.26;84.37
74218;BME280;62579;47.288;18.646;2022-09-09T05:52:30;99735.19;;;17.29;84.54
74218;BME280;62579;47.288;18.646;2022-09-09T05:55:13;99730.06;;;17.40;83.91
74218;BME280;62579;47.288;18.646;2022-09-09T05:57:39;99727.13;;;17.38;84.22
74218;BME280;62579;47.288;18.646;2022-09-09T06:00:04;99722.94;;;17.45;84.21
74218;BME280;62579;47.288;18.646;2022-09-09T06:02:29;99724.66;;;17.56;83.11
74218;BME280;62579;47.288;18.646;2022-09-09T06:04:55;99727.19;;;17.54;83.80
74218;BME280;62579;47.288;18.646;2022-09-09T06:07:20;99729.16;;;17.46;84.34
74218;BME280;62579;47.288;18.646;2022-09-09T06:09:45;99732.75;;;17.61;83.63
74218;BME280;62579;47.288;18.646;2022-09-09T06:12:11;99726.31;;;17.59;83.87
74218;BME280;62579;47.288;18.646;2022-09-09T06:14:36;99720.81;;;17.74;83.50
74218;BME280;62579;47.288;18.646;2022-09-09T06:17:01;99724.50;;;17.76;83.51
74218;BME280;62579;47.288;18.646;2022-09-09T06:19:27;99717.16;;;17.86;83.21
74218;BME280;62579;47.288;18.646;2022-09-09T06:21:54;99720.13;;;17.96;82.48
74218;BME280;62579;47.288;18.646;2022-09-09T06:24:28;99717.53;;;17.90;83.36
74218;BME280;62579;47.288;18.646;2022-09-09T06:34:51;99736.63;;;17.96;83.46
74218;BME280;62579;47.288;18.646;2022-09-09T06:37:17;99741.59;;;17.90;83.59
74218;BME280;62579;47.288;18.646;2022-09-09T06:39:42;99746.00;;;17.93;82.67
74218;BME280;62579;47.288;18.646;2022-09-09T06:42:07;99741.22;;;17.93;83.43
74218;BME280;62579;47.288;18.646;2022-09-09T06:44:33;99745.25;;;17.92;83.74
74218;BME280;62579;47.288;18.646;2022-09-09T06:46:59;99740.31;;;17.91;83.53
74218;BME280;62579;47.288;18.646;2022-09-09T06:49:24;99741.75;;;17.99;83.74
74218;BME280;62579;47.288;18.646;2022-09-09T06:51:49;99748.00;;;17.85;84.04
74218;BME280;62579;47.288;18.646;2022-09-09T06:54:14;99745.78;;;17.83;84.94
74218;BME280;62579;47.288;18.646;2022-09-09T06:56:40;99749.63;;;17.80;85.19
74218;BME280;62579;47.288;18.646;2022-09-09T06:59:07;99751.13;;;17.96;85.16
74218;BME280;62579;47.288;18.646;2022-09-09T07:01:34;99740.13;;;18.12;84.35
74218;BME280;62579;47.288;18.646;2022-09-09T07:04:00;99748.03;;;18.15;84.16
74218;BME280;62579;47.288;18.646;2022-09-09T07:11:16;99750.03;;;18.60;82.56
74218;BME280;62579;47.288;18.646;2022-09-09T07:13:41;99755.38;;;18.50;82.52
74218;BME280;62579;47.288;18.646;2022-09-09T07:16:08;99748.53;;;18.74;82.14
74218;BME280;62579;47.288;18.646;2022-09-09T07:18:34;99749.06;;;18.88;80.69
74218;BME280;62579;47.288;18.646;2022-09-09T07:20:59;99748.84;;;18.93;79.97
74218;BME280;62579;47.288;18.646;2022-09-09T07:23:25;99744.78;;;19.02;79.59
74218;BME280;62579;47.288;18.646;2022-09-09T07:25:51;99747.13;;;19.13;79.88
74218;BME280;62579;47.288;18.646;2022-09-09T07:28:17;99751.16;;;19.19;79.02
74218;BME280;62579;47.288;18.646;2022-09-09T07:30:43;99754.03;;;19.29;78.73
74218;BME280;62579;47.288;18.646;2022-09-09T07:33:08;99753.81;;;19.42;77.80
74218;BME280;62579;47.288;18.646;2022-09-09T07:35:34;99754.75;;;19.37;77.37
74218;BME280;62579;47.288;18.646;2022-09-09T07:38:03;99752.13;;;19.54;78.01
74218;BME280;62579;47.288;18.646;2022-09-09T07:40:31;99743.69;;;19.77;77.81
74218;BME280;62579;47.288;18.646;2022-09-09T07:42:56;99741.44;;;19.83;76.91
74218;BME280;62579;47.288;18.646;2022-09-09T07:45:21;99746.75;;;19.89;77.72
74218;BME280;62579;47.288;18.646;2022-09-09T07:47:47;99748.78;;;19.88;76.57
74218;BME280;62579;47.288;18.646;2022-09-09T07:50:13;99746.75;;;19.89;76.00
74218;BME280;62579;47.288;18.646;2022-09-09T07:52:39;99743.16;;;20.03;76.39
74218;BME280;62579;47.288;18.646;2022-09-09T07:55:04;99748.69;;;20.03;76.53
74218;BME280;62579;47.288;18.646;2022-09-09T07:57:30;99745.22;;;20.20;74.87
74218;BME280;62579;47.288;18.646;2022-09-09T07:59:56;99740.59;;;20.22;74.78
74218;BME280;62579;47.288;18.646;2022-09-09T08:02:22;99746.03;;;20.37;74.02
74218;BME280;62579;47.288;18.646;2022-09-09T08:04:47;99748.63;;;20.53;73.65
74218;BME280;62579;47.288;18.646;2022-09-09T08:07:13;99733.03;;;20.65;71.10
74218;BME280;62579;47.288;18.646;2022-09-09T08:09:38;99745.81;;;20.77;70.91
74218;BME280;62579;47.288;18.646;2022-09-09T08:12:04;99744.50;;;20.95;70.76
74218;BME280;62579;47.288;18.646;2022-09-09T08:14:30;99750.13;;;21.05;69.77
74218;BME280;62579;47.288;18.646;2022-09-09T08:16:55;99750.06;;;21.13;70.40
74218;BME280;62579;47.288;18.646;2022-09-09T08:19:21;99752.06;;;21.29;66.61
74218;BME280;62579;47.288;18.646;2022-09-09T08:21:46;99747.81;;;21.28;65.95
74218;BME280;62579;47.288;18.646;2022-09-09T08:24:12;99751.44;;;21.48;67.21
74218;BME280;62579;47.288;18.646;2022-09-09T08:26:39;99744.06;;;21.60;65.33
74218;BME280;62579;47.288;18.646;2022-09-09T08:29:06;99760.50;;;21.75;64.28
74218;BME280;62579;47.288;18.646;2022-09-09T08:31:36;99756.66;;;21.71;61.39
74218;BME280;62579;47.288;18.646;2022-09-09T08:48:28;99758.53;;;22.31;59.94
74218;BME280;62579;47.288;18.646;2022-09-09T08:50:57;99756.31;;;22.30;60.44
74218;BME280;62579;47.288;18.646;2022-09-09T08:53:27;99759.53;;;22.26;58.97
74218;BME280;62579;47.288;18.646;2022-09-09T08:55:56;99771.84;;;22.42;59.05
74218;BME280;62579;47.288;18.646;2022-09-09T08:58:31;99746.59;;;22.48;61.34
74218;BME280;62579;47.288;18.646;2022-09-09T09:06:01;99739.66;;;22.85;58.39
74218;BME280;62579;47.288;18.646;2022-09-09T09:08:52;99737.44;;;22.84;57.85
74218;BME280;62579;47.288;18.646;2022-09-09T09:11:18;99731.78;;;22.91;56.12
74218;BME280;62579;47.288;18.646;2022-09-09T09:13:48;99728.38;;;23.12;53.31
74218;BME280;62579;47.288;18.646;2022-09-09T09:18:47;99724.00;;;23.09;55.75
74218;BME280;62579;47.288;18.646;2022-09-09T09:21:14;99722.41;;;23.15;54.10
74218;BME280;62579;47.288;18.646;2022-09-09T09:23:45;99720.34;;;23.25;54.53
74218;BME280;62579;47.288;18.646;2022-09-09T09:26:13;99717.53;;;23.35;54.44
74218;BME280;62579;47.288;18.646;2022-09-09T09:28:39;99723.25;;;23.37;53.76
74218;BME280;62579;47.288;18.646;2022-09-09T09:31:06;99720.63;;;23.20;51.38
74218;BME280;62579;47.288;18.646;2022-09-09T09:36:06;99729.09;;;23.41;50.21
74218;BME280;62579;47.288;18.646;2022-09-09T09:38:33;99723.81;;;23.45;51.20
74218;BME280;62579;47.288;18.646;2022-09-09T09:40:59;99727.47;;;23.48;53.28
74218;BME280;62579;47.288;18.646;2022-09-09T09:43:26;99738.66;;;23.69;53.23
74218;BME280;62579;47.288;18.646;2022-09-09T09:45:52;99738.66;;;23.69;51.73
74218;BME280;62579;47.288;18.646;2022-09-09T09:48:17;99726.44;;;23.83;52.54
74218;BME280;62579;47.288;18.646;2022-09-09T09:50:47;99727.00;;;23.91;48.94
74218;BME280;62579;47.288;18.646;2022-09-09T09:53:20;99733.25;;;24.11;47.87
74218;BME280;62579;47.288;18.646;2022-09-09T09:55:50;99736.75;;;24.12;48.90
74218;BME280;62579;47.288;18.646;2022-09-09T09:58:17;99725.63;;;24.12;47.93
74218;BME280;62579;47.288;18.646;2022-09-09T10:00:50;99728.03;;;23.96;48.71
74218;BME280;62579;47.288;18.646;2022-09-09T10:03:29;99726.22;;;24.10;48.50
74218;BME280;62579;47.288;18.646;2022-09-09T10:05:54;99730.88;;;24.08;50.02
74218;BME280;62579;47.288;18.646;2022-09-09T10:08:21;99731.94;;;24.03;48.57
74218;BME280;62579;47.288;18.646;2022-09-09T10:13:30;99721.19;;;24.18;49.87
74218;BME280;62579;47.288;18.646;2022-09-09T10:21:20;99727.25;;;24.57;44.65
74218;BME280;62579;47.288;18.646;2022-09-09T10:26:24;99729.34;;;24.68;46.29
74218;BME280;62579;47.288;18.646;2022-09-09T10:29:09;99729.03;;;24.74;43.22
74218;BME280;62579;47.288;18.646;2022-09-09T10:31:51;99721.66;;;24.99;43.65
74218;BME280;62579;47.288;18.646;2022-09-09T10:36:56;99726.06;;;25.14;42.43
74218;BME280;62579;47.288;18.646;2022-09-09T10:52:25;99727.44;;;24.71;45.70
74218;BME280;62579;47.288;18.646;2022-09-09T10:57:40;99728.31;;;24.52;44.32
74218;BME280;62579;47.288;18.646;2022-09-09T11:00:13;99723.44;;;24.31;43.96
74218;BME280;62579;47.288;18.646;2022-09-09T11:02:39;99719.28;;;24.42;45.34
74218;BME280;62579;47.288;18.646;2022-09-09T11:05:09;99715.38;;;24.57;46.57
74218;BME280;62579;47.288;18.646;2022-09-09T11:07:42;99723.12;;;24.58;46.74
74218;BME280;62579;47.288;18.646;2022-09-09T11:10:24;99725.00;;;24.86;46.57
74218;BME280;62579;47.288;18.646;2022-09-09T11:12:50;99727.03;;;24.86;46.47
74218;BME280;62579;47.288;18.646;2022-09-09T11:15:29;99723.22;;;25.02;44.84
74218;BME280;62579;47.288;18.646;2022-09-09T11:17:56;99721.56;;;25.09;44.54
74218;BME280;62579;47.288;18.646;2022-09-09T11:20:23;99733.22;;;25.17;45.42
74218;BME280;62579;47.288;18.646;2022-09-09T11:25:42;99718.66;;;25.63;43.44
74218;BME280;62579;47.288;18.646;2022-09-09T11:28:15;99710.06;;;25.59;42.83
74218;BME280;62579;47.288;18.646;2022-09-09T11:33:25;99703.63;;;25.56;44.82
74218;BME280;62579;47.288;18.646;2022-09-09T11:38:27;99702.19;;;25.67;41.93
74218;BME280;62579;47.288;18.646;2022-09-09T11:41:01;99696.13;;;25.59;43.29
74218;BME280;62579;47.288;18.646;2022-09-09T11:43:27;99693.34;;;25.71;43.70
74218;BME280;62579;47.288;18.646;2022-09-09T11:45:54;99692.25;;;25.76;42.48
74218;BME280;62579;47.288;18.646;2022-09-09T11:48:28;99700.50;;;25.62;41.26
74218;BME280;62579;47.288;18.646;2022-09-09T11:50:58;99692.72;;;25.49;38.59
74218;BME280;62579;47.288;18.646;2022-09-09T11:53:24;99701.22;;;25.51;41.23
74218;BME280;62579;47.288;18.646;2022-09-09T11:58:58;99702.34;;;25.36;41.42
74218;BME280;62579;47.288;18.646;2022-09-09T12:01:42;99708.16;;;25.17;43.54
74218;BME280;62579;47.288;18.646;2022-09-09T12:06:44;99701.88;;;25.40;41.24
74218;BME280;62579;47.288;18.646;2022-09-09T12:09:18;99700.81;;;25.33;41.80
74218;BME280;62579;47.288;18.646;2022-09-09T12:11:44;99700.03;;;25.21;42.72
74218;BME280;62579;47.288;18.646;2022-09-09T12:14:23;99703.06;;;25.14;42.13
74218;BME280;62579;47.288;18.646;2022-09-09T12:17:08;99703.19;;;25.27;43.18
74218;BME280;62579;47.288;18.646;2022-09-09T12:19:34;99694.53;;;25.00;43.08
74218;BME280;62579;47.288;18.646;2022-09-09T12:22:19;99677.00;;;25.09;42.83
74218;BME280;62579;47.288;18.646;2022-09-09T12:24:58;99685.31;;;24.97;42.95
74218;BME280;62579;47.288;18.646;2022-09-09T12:27:28;99671.91;;;25.05;41.78
74218;BME280;62579;47.288;18.646;2022-09-09T12:32:29;99670.00;;;25.20;43.74
74218;BME280;62579;47.288;18.646;2022-09-09T12:34:55;99668.66;;;25.21;42.52
74218;BME280;62579;47.288;18.646;2022-09-09T12:37:30;99670.00;;;25.31;43.59
74218;BME280;62579;47.288;18.646;2022-09-09T12:39:58;99671.56;;;25.23;40.03
74218;BME280;62579;47.288;18.646;2022-09-09T12:42:24;99664.19;;;25.39;41.27
74218;BME280;62579;47.288;18.646;2022-09-09T12:44:51;99660.38;;;25.67;40.52
74218;BME280;62579;47.288;18.646;2022-09-09T12:47:16;99658.31;;;25.79;37.24
74218;BME280;62579;47.288;18.646;2022-09-09T12:49:43;99656.34;;;25.93;41.04
74218;BME280;62579;47.288;18.646;2022-09-09T12:52:13;99654.28;;;26.05;38.97
74218;BME280;62579;47.288;18.646;2022-09-09T12:54:43;99650.66;;;25.91;40.79
74218;BME280;62579;47.288;18.646;2022-09-09T12:57:11;99638.31;;;25.71;41.43
74218;BME280;62579;47.288;18.646;2022-09-09T12:59:38;99623.62;;;25.82;39.44
74218;BME280;62579;47.288;18.646;2022-09-09T13:04:41;99623.50;;;25.92;40.14
74218;BME280;62579;47.288;18.646;2022-09-09T13:07:07;99621.31;;;25.90;39.62
74218;BME280;62579;47.288;18.646;2022-09-09T13:09:34;99621.09;;;25.75;39.67
74218;BME280;62579;47.288;18.646;2022-09-09T13:12:00;99622.44;;;25.50;39.17
74218;BME280;62579;47.288;18.646;2022-09-09T13:14:28;99620.63;;;25.43;41.46
74218;BME280;62579;47.288;18.646;2022-09-09T13:16:58;99615.03;;;25.32;40.32
74218;BME280;62579;47.288;18.646;2022-09-09T13:19:24;99630.03;;;25.15;40.00
74218;BME280;62579;47.288;18.646;2022-09-09T13:21:53;99631.34;;;25.02;40.24
74218;BME280;62579;47.288;18.646;2022-09-09T13:26:56;99622.88;;;25.00;42.14
74218;BME280;62579;47.288;18.646;2022-09-09T13:29:21;99626.50;;;25.15;42.61
74218;BME280;62579;47.288;18.646;2022-09-09T13:31:47;99619.50;;;25.14;42.97
74218;BME280;62579;47.288;18.646;2022-09-09T13:34:13;99608.38;;;25.25;43.42
74218;BME280;62579;47.288;18.646;2022-09-09T13:36:39;99603.41;;;25.35;42.77
74218;BME280;62579;47.288;18.646;2022-09-09T13:39:14;99592.53;;;25.51;44.47
74218;BME280;62579;47.288;18.646;2022-09-09T13:41:44;99598.69;;;25.73;42.31
74218;BME280;62579;47.288;18.646;2022-09-09T13:44:28;99584.13;;;25.74;42.24
74218;BME280;62579;47.288;18.646;2022-09-09T13:47:56;99590.81;;;25.69;42.43
74218;BME280;62579;47.288;18.646;2022-09-09T13:49:50;99584.38;;;25.78;44.52
74218;BME280;62579;47.288;18.646;2022-09-09T13:52:16;99581.75;;;25.57;42.73
74218;BME280;62579;47.288;18.646;2022-09-09T13:54:43;99578.72;;;25.53;43.10
74218;BME280;62579;47.288;18.646;2022-09-09T13:57:15;99573.63;;;25.61;44.10
74218;BME280;62579;47.288;18.646;2022-09-09T13:59:42;99571.91;;;25.67;42.54
74218;BME280;62579;47.288;18.646;2022-09-09T14:02:07;99570.94;;;25.75;43.11
74218;BME280;62579;47.288;18.646;2022-09-09T14:04:32;99569.13;;;25.67;44.42
74218;BME280;62579;47.288;18.646;2022-09-09T14:07:00;99566.69;;;25.74;42.87
74218;BME280;62579;47.288;18.646;2022-09-09T14:09:25;99560.88;;;25.81;42.17
74218;BME280;62579;47.288;18.646;2022-09-09T14:11:50;99556.59;;;25.92;42.70
74218;BME280;62579;47.288;18.646;2022-09-09T14:14:16;99551.69;;;26.15;42.59
74218;BME280;62579;47.288;18.646;2022-09-09T14:16:41;99553.69;;;26.27;41.09
74218;BME280;62579;47.288;18.646;2022-09-09T14:19:07;99538.97;;;26.38;39.90
74218;BME280;62579;47.288;18.646;2022-09-09T14:21:33;99543.66;;;26.10;41.51
74218;BME280;62579;47.288;18.646;2022-09-09T14:23:58;99549.75;;;26.06;40.93
74218;BME280;62579;47.288;18.646;2022-09-09T14:26:23;99555.03;;;25.89;41.59
74218;BME280;62579;47.288;18.646;2022-09-09T14:28:48;99552.81;;;25.87;40.12
74218;BME280;62579;47.288;18.646;2022-09-09T14:31:15;99551.50;;;25.88;40.44
74218;BME280;62579;47.288;18.646;2022-09-09T14:33:42;99549.44;;;25.89;39.90
74218;BME280;62579;47.288;18.646;2022-09-09T14:36:08;99549.28;;;25.50;40.42
74218;BME280;62579;47.288;18.646;2022-09-09T14:38:35;99553.25;;;25.24;40.52
74218;BME280;62579;47.288;18.646;2022-09-09T14:41:09;99558.94;;;25.37;40.89
74218;BME280;62579;47.288;18.646;2022-09-09T14:43:35;99554.38;;;25.30;41.92
74218;BME280;62579;47.288;18.646;2022-09-09T14:46:07;99560.16;;;25.34;42.01
74218;BME280;62579;47.288;18.646;2022-09-09T14:48:32;99550.84;;;25.30;42.50
74218;BME280;62579;47.288;18.646;2022-09-09T14:51:04;99555.31;;;25.58;42.93
74218;BME280;62579;47.288;18.646;2022-09-09T14:53:29;99550.91;;;25.90;40.93
74218;BME280;62579;47.288;18.646;2022-09-09T14:56:02;99549.75;;;26.06;41.72
74218;BME280;62579;47.288;18.646;2022-09-09T14:58:29;99555.00;;;26.37;40.56
74218;BME280;62579;47.288;18.646;2022-09-09T15:00:55;99554.69;;;26.45;40.14
74218;BME280;62579;47.288;18.646;2022-09-09T15:03:20;99553.41;;;26.59;40.32
74218;BME280;62579;47.288;18.646;2022-09-09T15:05:46;99547.56;;;26.67;39.82
74218;BME280;62579;47.288;18.646;2022-09-09T15:08:12;99544.75;;;26.67;39.04
74218;BME280;62579;47.288;18.646;2022-09-09T15:10:37;99546.63;;;26.62;39.15
74218;BME280;62579;47.288;18.646;2022-09-09T15:13:04;99544.50;;;26.24;39.44
74218;BME280;62579;47.288;18.646;2022-09-09T15:15:29;99551.56;;;26.13;40.81
74218;BME280;62579;47.288;18.646;2022-09-09T15:17:55;99550.97;;;26.03;42.24
74218;BME280;62579;47.288;18.646;2022-09-09T15:20:20;99547.59;;;25.93;42.62
74218;BME280;62579;47.288;18.646;2022-09-09T15:22:45;99553.22;;;25.82;41.56
74218;BME280;62579;47.288;18.646;2022-09-09T15:25:10;99554.56;;;25.69;42.29
74218;BME280;62579;47.288;18.646;2022-09-09T15:27:37;99556.78;;;25.71;43.40
74218;BME280;62579;47.288;18.646;2022-09-09T15:30:04;99544.78;;;25.68;44.85
74218;BME280;62579;47.288;18.646;2022-09-09T15:32:29;99542.47;;;25.64;43.89
74218;BME280;62579;47.288;18.646;2022-09-09T15:34:54;99551.22;;;25.59;45.08
74218;BME280;62579;47.288;18.646;2022-09-09T15:37:20;99549.00;;;25.46;45.54
74218;BME280;62579;47.288;18.646;2022-09-09T15:39:45;99549.75;;;25.35;45.67
74218;BME280;62579;47.288;18.646;2022-09-09T15:42:10;99563.44;;;25.31;45.13
74218;BME280;62579;47.288;18.646;2022-09-09T15:44:39;99553.63;;;25.18;45.26
74218;BME280;62579;47.288;18.646;2022-09-09T15:47:07;99562.25;;;25.22;45.69
74218;BME280;62579;47.288;18.646;2022-09-09T15:49:32;99558.97;;;25.14;45.69
74218;BME280;62579;47.288;18.646;2022-09-09T15:51:58;99561.72;;;25.02;45.95
74218;BME280;62579;47.288;18.646;2022-09-09T15:54:27;99566.56;;;25.02;46.50
74218;BME280;62579;47.288;18.646;2022-09-09T15:56:57;99573.69;;;24.93;46.91
74218;BME280;62579;47.288;18.646;2022-09-09T15:59:23;99572.13;;;24.90;48.15
74218;BME280;62579;47.288;18.646;2022-09-09T16:01:49;99569.19;;;24.77;49.32
74218;BME280;62579;47.288;18.646;2022-09-09T16:04:16;99567.81;;;24.66;49.54
74218;BME280;62579;47.288;18.646;2022-09-09T16:06:48;99568.28;;;24.63;49.28
74218;BME280;62579;47.288;18.646;2022-09-09T16:09:13;99564.16;;;24.52;49.90
74218;BME280;62579;47.288;18.646;2022-09-09T16:11:38;99575.00;;;24.48;49.58
74218;BME280;62579;47.288;18.646;2022-09-09T16:14:07;99572.97;;;24.48;49.96
74218;BME280;62579;47.288;18.646;2022-09-09T16:16:32;99575.00;;;24.48;49.70
74218;BME280;62579;47.288;18.646;2022-09-09T16:18:58;99570.44;;;24.53;49.33
74218;BME280;62579;47.288;18.646;2022-09-09T16:21:25;99565.56;;;24.41;50.55
74218;BME280;62579;47.288;18.646;2022-09-09T16:23:54;99561.25;;;23.96;50.06
74218;BME280;62579;47.288;18.646;2022-09-09T16:26:19;99567.06;;;24.00;50.21
74218;BME280;62579;47.288;18.646;2022-09-09T16:28:45;99565.91;;;23.72;51.25
74218;BME280;62579;47.288;18.646;2022-09-09T16:31:13;99570.16;;;23.73;51.41
74218;BME280;62579;47.288;18.646;2022-09-09T16:33:39;99578.72;;;23.87;51.44
74218;BME280;62579;47.288;18.646;2022-09-09T16:36:05;99578.41;;;23.83;51.96
74218;BME280;62579;47.288;18.646;2022-09-09T16:38:30;99585.56;;;23.65;52.56
74218;BME280;62579;47.288;18.646;2022-09-09T16:40:58;99588.66;;;23.59;52.86
74218;BME280;62579;47.288;18.646;2022-09-09T16:43:24;99582.97;;;23.57;53.15
74218;BME280;62579;47.288;18.646;2022-09-09T16:45:49;99582.44;;;23.49;53.58
74218;BME280;62579;47.288;18.646;2022-09-09T16:48:14;99583.16;;;23.50;53.75
74218;BME280;62579;47.288;18.646;2022-09-09T16:50:39;99585.12;;;23.38;53.74
74218;BME280;62579;47.288;18.646;2022-09-09T16:53:04;99587.69;;;23.14;54.00
74218;BME280;62579;47.288;18.646;2022-09-09T16:55:31;99582.44;;;23.09;54.41